Time;durP1;ratioP1;P1;durP2;ratioP2;P2;SDS_P1;SDS_P2;PMS_P1;PMS_P2;Temp;Humidity;BMP_temperature;BMP_pressure;BME280_temperature;BME280_humidity;BME280_pressure;Samples;Min_cycle;Max_cycle;Signal;HPM_P1;HPM_P2
2023/12/26 00:01:06;;;;;;;5.28;1.80;;;;;;;9.77;89.01;99652.03;6118245;23;20022;-85
2023/12/26 00:03:33;;;;;;;4.38;1.77;;;;;;;9.80;88.65;99634.19;6119552;23;20112;-86
2023/12/26 00:06:00;;;;;;;4.47;1.85;;;;;;;9.78;89.25;99640.44;6071819;23;20061;-85
2023/12/26 00:08:27;;;;;;;7.40;1.67;;;;;;;9.76;89.17;99637.09;6119371;23;20056;-84
2023/12/26 00:10:54;;;;;;;2.95;1.50;;;;;;;9.77;89.42;99625.53;6094407;23;20022;-85
2023/12/26 00:13:21;;;;;;;2.97;2.65;;;;;;;9.82;89.72;99629.56;6118895;23;20025;-85
2023/12/26 00:15:48;;;;;;;5.07;1.42;;;;;;;9.84;89.41;99623.16;6093594;23;20033;-85
2023/12/26 00:18:15;;;;;;;2.22;1.50;;;;;;;9.74;88.75;99624.94;6119634;23;20123;-85
2023/12/26 00:20:43;;;;;;;2.45;1.35;;;;;;;9.77;89.03;99627.34;6142032;23;20029;-85
2023/12/26 00:23:10;;;;;;;3.03;1.65;;;;;;;9.78;89.02;99627.19;6143773;23;20021;-85
2023/12/26 00:25:37;;;;;;;4.25;1.70;;;;;;;9.81;89.11;99635.84;6143842;23;20018;-85
2023/12/26 00:28:04;;;;;;;4.15;1.80;;;;;;;9.81;88.93;99619.94;6119393;23;20523;-85
2023/12/26 00:30:31;;;;;;;3.33;1.73;;;;;;;9.83;89.05;99625.94;6118346;23;20025;-85
2023/12/26 00:32:59;;;;;;;3.38;1.95;;;;;;;9.84;89.14;99622.31;6094324;23;20404;-85
2023/12/26 00:35:27;;;;;;;5.20;1.33;;;;;;;9.83;88.80;99625.94;6119868;23;20381;-86
2023/12/26 00:37:54;;;;;;;3.35;1.50;;;;;;;9.82;88.45;99624.25;6119873;23;20021;-85
2023/12/26 00:40:21;;;;;;;1.88;1.40;;;;;;;9.84;88.83;99631.09;6093354;23;20377;-85
2023/12/26 00:42:48;;;;;;;4.47;2.00;;;;;;;9.82;88.53;99621.59;6094651;23;20025;-85
2023/12/26 00:45:15;;;;;;;3.45;1.63;;;;;;;9.85;88.63;99634.63;6143672;23;20025;-86
2023/12/26 00:47:42;;;;;;;3.63;2.00;;;;;;;9.82;88.56;99626.91;6119337;23;20092;-85
2023/12/26 00:50:11;;;;;;;6.30;1.65;;;;;;;9.82;88.53;99629.56;6118100;23;20031;-85
2023/12/26 00:52:39;;;;;;;2.67;1.65;;;;;;;9.80;88.18;99634.19;6095329;23;20433;-85
2023/12/26 00:55:06;;;;;;;2.30;1.38;;;;;;;9.82;88.44;99622.47;6119541;23;20048;-85
2023/12/26 00:57:33;;;;;;;3.80;1.52;;;;;;;9.83;88.07;99631.25;6143859;23;20033;-84
2023/12/26 01:00:01;;;;;;;7.15;1.77;;;;;;;9.86;88.35;99628.31;6069804;23;20021;-85
2023/12/26 01:02:28;;;;;;;2.97;1.42;;;;;;;9.81;87.49;99623.41;6094450;23;20092;-85
2023/12/26 01:04:56;;;;;;;6.10;1.40;;;;;;;9.77;87.89;99620.22;6118676;23;20031;-85
2023/12/26 01:07:23;;;;;;;3.33;1.52;;;;;;;9.80;87.83;99623.59;6095539;23;20488;-85
2023/12/26 01:09:50;;;;;;;6.13;1.65;;;;;;;9.81;88.09;99625.25;6117910;23;20420;-85
2023/12/26 01:12:17;;;;;;;2.55;1.42;;;;;;;9.82;nan;99634.88;6119582;23;20029;-85
2023/12/26 01:14:44;;;;;;;8.57;1.80;;;;;;;9.80;87.97;99635.03;6095043;23;20089;-85
2023/12/26 01:17:11;;;;;;;3.65;2.00;;;;;;;9.83;87.86;99629.44;6118593;23;20401;-85
2023/12/26 01:19:38;;;;;;;5.30;1.40;;;;;;;9.83;87.81;99634.75;6143395;23;20500;-85
2023/12/26 01:22:05;;;;;;;3.60;1.23;;;;;;;9.81;87.58;99623.41;6097495;23;20017;-85
2023/12/26 01:24:32;;;;;;;3.13;1.83;;;;;;;9.80;87.36;99634.19;6096479;23;20087;-86
2023/12/26 01:26:59;;;;;;;4.47;1.40;;;;;;;9.76;87.33;99642.38;6121195;23;20080;-85
2023/12/26 01:29:26;;;;;;;7.43;1.58;;;;;;;9.77;87.33;99641.44;6097060;23;20080;-85
2023/12/26 01:31:53;;;;;;;2.63;1.30;;;;;;;9.72;86.96;99648.97;6144949;23;20084;-86
2023/12/26 01:34:19;;;;;;;4.05;1.40;;;;;;;9.76;87.25;99634.44;6097378;23;20447;-85
2023/12/26 01:36:47;;;;;;;4.30;1.38;;;;;;;9.74;87.01;99632.88;6120814;23;20026;-85
2023/12/26 01:39:15;;;;;;;3.85;1.35;;;;;;;9.64;86.44;99632.03;6120893;23;20806;-85
2023/12/26 01:41:42;;;;;;;4.55;1.58;;;;;;;9.67;86.51;99621.19;6120475;23;20088;-85
2023/12/26 01:44:09;;;;;;;2.13;1.38;;;;;;;9.74;87.01;99643.50;6097257;23;20032;-85
2023/12/26 01:46:36;;;;;;;4.30;1.40;;;;;;;9.75;87.05;99630.13;6120815;23;20028;-85
2023/12/26 01:49:04;;;;;;;5.25;1.63;;;;;;;9.77;87.16;99643.25;6145777;23;20029;-86
2023/12/26 01:51:31;;;;;;;4.85;1.55;;;;;;;9.72;86.30;99643.66;6121367;23;20025;-85
2023/12/26 01:53:58;;;;;;;2.38;1.48;;;;;;;9.75;86.88;99648.69;6122211;23;20025;-86
2023/12/26 01:56:26;;;;;;;2.50;1.60;;;;;;;9.73;86.69;99642.66;6145839;23;20021;-85
2023/12/26 01:58:53;;;;;;;4.85;1.80;;;;;;;9.74;86.83;99639.06;6097078;23;20017;-85
2023/12/26 02:01:20;;;;;;;3.70;1.40;;;;;;;9.75;86.75;99643.38;6120184;23;20073;-85
2023/12/26 02:03:47;;;;;;;4.70;1.30;;;;;;;9.79;87.10;99651.88;6096353;23;20021;-85
2023/12/26 02:06:14;;;;;;;2.92;1.50;;;;;;;9.78;86.91;99658.19;6096481;23;20408;-86
2023/12/26 02:08:41;;;;;;;5.63;2.28;;;;;;;9.73;86.59;99649.78;6096270;23;20021;-85
2023/12/26 02:11:10;;;;;;;6.43;1.50;;;;;;;9.69;86.43;99643.06;6120186;23;20779;-85
2023/12/26 02:13:36;;;;;;;4.05;1.70;;;;;;;9.72;86.81;99651.59;6145774;23;20041;-86
2023/12/26 02:16:14;;;;;;;7.18;1.65;;;;;;;9.67;85.81;99640.56;6096606;23;20033;-86
2023/12/26 02:18:41;;;;;;;5.45;2.20;;;;;;;9.71;86.76;99649.91;6095883;23;20032;-85
2023/12/26 02:21:08;;;;;;;4.68;1.55;;;;;;;9.72;86.32;99611.00;6120690;23;20024;-85
2023/12/26 02:23:37;;;;;;;6.47;1.60;;;;;;;9.72;86.47;99634.88;6144967;23;20089;-86
2023/12/26 02:26:04;;;;;;;4.32;1.80;;;;;;;9.69;86.02;99633.31;6120703;23;20352;-85
2023/12/26 02:28:32;;;;;;;4.65;1.70;;;;;;;9.67;86.05;99631.78;6095009;23;20026;-86
2023/12/26 02:31:01;;;;;;;6.60;1.80;;;;;;;9.68;86.25;99626.31;6094967;23;20072;-85
2023/12/26 02:33:32;;;;;;;4.95;1.75;;;;;;;9.71;86.18;99643.78;6138908;23;20030;-85
2023/12/26 02:36:00;;;;;;;6.25;2.20;;;;;;;9.71;86.20;99634.00;6144651;23;20524;-84
2023/12/26 02:38:27;;;;;;;6.68;2.15;;;;;;;9.68;85.55;99642.22;6145063;23;20091;-85
2023/12/26 02:40:54;;;;;;;3.50;1.73;;;;;;;9.71;86.24;99636.66;6094730;23;20021;-85
2023/12/26 02:43:22;;;;;;;5.32;1.50;;;;;;;9.69;86.13;99641.28;6096515;23;20096;-85
2023/12/26 02:45:49;;;;;;;5.70;2.42;;;;;;;9.69;86.02;99632.47;6095435;23;20448;-85
2023/12/26 02:48:19;;;;;;;10.32;2.55;;;;;;;9.69;86.27;99635.97;6096181;23;20029;-85
2023/12/26 02:50:47;;;;;;;8.95;2.00;;;;;;;9.73;86.21;99636.53;6095133;23;20109;-86
2023/12/26 02:53:14;;;;;;;10.60;2.05;;;;;;;9.77;86.20;99637.94;6120959;23;20033;-86
2023/12/26 02:55:41;;;;;;;5.82;2.35;;;;;;;9.69;85.65;99629.81;6144626;23;20026;-85
2023/12/26 02:58:08;;;;;;;5.25;1.83;;;;;;;9.75;86.01;99631.94;6095993;23;20100;-85
2023/12/26 03:00:35;;;;;;;5.47;1.73;;;;;;;9.76;86.19;99630.94;6118652;23;20045;-86
2023/12/26 03:03:03;;;;;;;8.48;1.95;;;;;;;9.77;85.90;99628.16;6145119;23;20022;-86
2023/12/26 03:05:30;;;;;;;12.85;2.42;;;;;;;9.76;85.66;99638.91;6120174;23;20024;-86
2023/12/26 03:07:56;;;;;;;4.85;1.80;;;;;;;9.76;85.76;99637.09;6096381;23;20044;-86
2023/12/26 03:10:24;;;;;;;6.80;1.90;;;;;;;9.77;85.78;99630.00;6095214;23;20059;-86
2023/12/26 03:12:51;;;;;;;6.75;2.17;;;;;;;9.79;85.88;99625.38;6095046;23;20062;-86
2023/12/26 03:15:18;;;;;;;5.90;1.92;;;;;;;9.74;85.61;99624.94;6096626;23;20025;-86
2023/12/26 03:17:45;;;;;;;6.68;2.15;;;;;;;9.72;85.00;99637.50;6095351;23;20022;-85
2023/12/26 03:20:12;;;;;;;6.32;2.03;;;;;;;9.74;85.06;99636.41;6118896;23;20502;-85
2023/12/26 03:22:40;;;;;;;7.38;1.98;;;;;;;9.74;84.70;99636.41;6095349;23;20021;-86
2023/12/26 03:25:07;;;;;;;9.80;2.22;;;;;;;9.73;84.84;99633.88;6144773;23;20334;-85
2023/12/26 03:27:34;;;;;;;5.13;1.83;;;;;;;9.77;85.25;99640.59;6094845;23;20022;-85
2023/12/26 03:30:01;;;;;;;8.88;2.20;;;;;;;9.72;84.94;99633.03;6144149;23;20026;-86
2023/12/26 03:32:28;;;;;;;13.43;2.25;;;;;;;9.72;84.78;99633.03;6095325;23;20018;-86
2023/12/26 03:34:56;;;;;;;8.77;3.28;;;;;;;9.76;84.95;99646.84;6095924;23;20080;-86
2023/12/26 03:37:23;;;;;;;4.93;1.80;;;;;;;9.77;84.96;99630.81;6096016;23;20041;-86
2023/12/26 03:39:50;;;;;;;11.38;2.15;;;;;;;9.78;84.73;99645.75;6118487;23;20037;-85
2023/12/26 03:42:17;;;;;;;8.60;2.03;;;;;;;9.79;84.72;99635.97;6120081;23;20039;-86
2023/12/26 03:44:46;;;;;;;7.22;2.10;;;;;;;9.78;84.79;99627.19;6096246;23;20022;-85
2023/12/26 03:47:14;;;;;;;10.93;1.90;;;;;;;9.80;85.03;99648.28;6120171;23;20025;-85
2023/12/26 03:49:41;;;;;;;7.35;2.13;;;;;;;9.76;84.09;99645.03;6118920;23;20464;-86
2023/12/26 03:52:09;;;;;;;8.95;2.42;;;;;;;9.79;84.37;99638.63;6119365;23;20507;-85
2023/12/26 03:54:36;;;;;;;9.80;2.55;;;;;;;9.80;84.24;99631.53;6119821;23;20013;-85
2023/12/26 03:57:04;;;;;;;7.47;2.20;;;;;;;9.78;84.14;99640.44;6119433;23;20021;-86
2023/12/26 03:59:31;;;;;;;4.45;1.80;;;;;;;9.73;83.56;99628.56;6118764;23;20124;-85
2023/12/26 04:01:58;;;;;;;7.90;2.10;;;;;;;9.77;83.95;99630.81;6120152;23;20018;-85
2023/12/26 04:04:26;;;;;;;8.68;2.10;;;;;;;9.78;84.22;99647.56;6143860;23;20026;-85
2023/12/26 04:06:53;;;;;;;10.02;2.65;;;;;;;9.79;84.16;99651.88;6119776;23;20017;-85
2023/12/26 04:09:20;;;;;;;10.15;2.45;;;;;;;9.80;83.41;99629.72;6119244;23;20032;-85
2023/12/26 04:11:47;;;;;;;9.52;2.17;;;;;;;9.80;83.47;99629.72;6119436;23;20093;-86
2023/12/26 04:14:14;;;;;;;10.52;2.20;;;;;;;9.81;83.78;99619.94;6144047;23;20075;-85
2023/12/26 04:16:41;;;;;;;7.65;2.25;;;;;;;9.82;83.68;99618.94;6095512;23;20030;-85
2023/12/26 04:19:09;;;;;;;10.05;2.10;;;;;;;9.74;82.81;99611.69;6139125;23;20053;-84
2023/12/26 04:21:37;;;;;;;10.95;2.55;;;;;;;9.78;83.46;99623.69;6118550;23;20027;-85
2023/12/26 04:24:04;;;;;;;6.45;2.25;;;;;;;9.71;82.72;99630.50;6119609;23;20105;-86
2023/12/26 04:26:31;;;;;;;7.90;2.60;;;;;;;9.74;82.76;99625.81;6094985;23;20688;-86
2023/12/26 04:28:58;;;;;;;9.50;2.30;;;;;;;9.76;82.89;99634.44;6094239;23;20033;-85
2023/12/26 04:31:25;;;;;;;4.78;2.03;;;;;;;9.74;82.57;99633.75;6118653;23;20030;-86
2023/12/26 04:33:52;;;;;;;18.95;3.92;;;;;;;9.71;82.59;99626.03;6144539;23;20021;-86
2023/12/26 04:36:20;;;;;;;6.88;2.58;;;;;;;9.69;82.41;99627.16;6094852;23;20026;-86
2023/12/26 04:38:47;;;;;;;5.47;2.22;;;;;;;9.73;81.92;99631.22;6094013;23;20449;-85
2023/12/26 04:41:14;;;;;;;13.02;3.10;;;;;;;9.69;82.17;99627.16;6119303;23;20022;-85
2023/12/26 04:43:41;;;;;;;8.98;2.22;;;;;;;9.67;81.86;99635.25;6095337;23;20044;-85
2023/12/26 04:46:08;;;;;;;13.57;2.60;;;;;;;9.70;82.13;99636.81;6094855;23;20437;-85
2023/12/26 04:48:34;;;;;;;8.30;2.38;;;;;;;9.70;82.37;99637.63;6094810;23;20625;-85
2023/12/26 04:51:02;;;;;;;6.78;1.92;;;;;;;9.67;81.84;99640.56;6118382;23;20032;-85
2023/12/26 04:53:29;;;;;;;9.88;2.00;;;;;;;9.69;82.19;99654.53;6094742;23;20088;-85
2023/12/26 04:55:56;;;;;;;6.00;2.20;;;;;;;9.68;81.87;99652.00;6119727;23;20033;-85
2023/12/26 04:58:23;;;;;;;9.20;2.20;;;;;;;9.70;81.71;99650.91;6094593;23;20025;-85
2023/12/26 05:00:50;;;;;;;7.22;2.47;;;;;;;9.68;81.93;99650.19;6118531;23;20025;-85
2023/12/26 05:03:17;;;;;;;11.43;2.30;;;;;;;9.68;81.84;99647.53;6096031;23;20025;-84
2023/12/26 05:05:44;;;;;;;10.93;3.03;;;;;;;9.64;81.59;99640.84;6094850;23;20033;-85
2023/12/26 05:08:11;;;;;;;4.15;2.03;;;;;;;9.65;81.53;99647.81;6094755;23;20088;-86
2023/12/26 05:10:38;;;;;;;14.35;2.20;;;;;;;9.57;80.89;99658.25;6119012;23;20021;-85
2023/12/26 05:13:04;;;;;;;7.13;2.10;;;;;;;9.64;81.49;99662.06;6119491;23;20341;-85
2023/12/26 05:15:31;;;;;;;10.98;2.90;;;;;;;9.67;81.71;99655.63;6094371;23;20039;-85
2023/12/26 05:17:58;;;;;;;9.18;2.22;;;;;;;9.69;81.50;99658.97;6143899;23;20032;-84
2023/12/26 05:20:26;;;;;;;11.18;2.45;;;;;;;9.68;81.34;99652.84;6117629;23;20084;-85
2023/12/26 05:22:57;;;;;;;7.88;2.17;;;;;;;9.70;81.60;99652.72;6096150;23;20021;-85
2023/12/26 05:25:26;;;;;;;11.07;2.28;;;;;;;9.64;81.08;99666.50;6095292;23;20387;-85
2023/12/26 05:27:53;;;;;;;6.53;2.55;;;;;;;9.64;80.89;99663.84;6119928;23;20014;-85
2023/12/26 05:30:20;;;;;;;12.10;3.45;;;;;;;9.68;81.24;99665.25;6094462;23;20049;-85
2023/12/26 05:32:48;;;;;;;10.55;2.42;;;;;;;9.68;81.15;99674.03;6119501;23;20104;-85
2023/12/26 05:35:18;;;;;;;8.85;2.80;;;;;;;9.68;81.04;99670.56;6119104;23;20021;-85
2023/12/26 05:37:45;;;;;;;14.02;2.70;;;;;;;9.64;80.58;99674.44;6143961;23;20096;-85
2023/12/26 05:40:12;;;;;;;9.45;2.53;;;;;;;9.68;80.86;99679.34;6094395;23;20049;-85
2023/12/26 05:42:39;;;;;;;7.03;2.05;;;;;;;9.67;80.60;99680.34;6118870;23;20025;-85
2023/12/26 05:45:06;;;;;;;10.82;2.20;;;;;;;9.65;80.48;99682.28;6095858;23;20017;-85
2023/12/26 05:47:34;;;;;;;10.98;2.53;;;;;;;9.66;80.39;99685.75;6095210;23;20026;-84
2023/12/26 05:50:03;;;;;;;9.85;2.85;;;;;;;9.63;80.71;99693.97;6094128;23;20021;-85
2023/12/26 05:52:30;;;;;;;5.88;2.17;;;;;;;9.62;80.16;99684.38;6143665;23;20028;-85
2023/12/26 05:54:57;;;;;;;8.98;2.00;;;;;;;9.64;80.68;99683.25;6144340;23;20018;-85
2023/12/26 05:57:24;;;;;;;13.38;2.53;;;;;;;9.69;80.68;99686.34;6118974;23;20100;-85
2023/12/26 05:59:53;;;;;;;7.88;2.53;;;;;;;9.62;80.15;99684.38;6093800;23;20365;-86
2023/12/26 06:02:20;;;;;;;8.98;2.35;;;;;;;9.66;80.37;99699.84;6096030;23;20091;-85
2023/12/26 06:04:47;;;;;;;14.35;2.35;;;;;;;9.69;80.80;99690.78;6143040;23;20032;-85
2023/12/26 06:07:13;;;;;;;8.32;2.50;;;;;;;9.71;80.39;99707.41;6120206;23;20036;-85
2023/12/26 06:09:40;;;;;;;12.60;2.45;;;;;;;9.72;80.90;99707.28;6120894;23;20017;-85
2023/12/26 06:12:07;;;;;;;9.80;2.20;;;;;;;9.74;80.60;99702.69;6120611;23;20465;-85
2023/12/26 06:14:34;;;;;;;9.02;2.20;;;;;;;9.71;80.61;99710.88;6119671;23;20029;-84
2023/12/26 06:17:01;;;;;;;7.90;2.70;;;;;;;9.74;80.57;99720.38;6120892;23;20076;-85
2023/12/26 06:19:28;;;;;;;15.82;2.42;;;;;;;9.75;80.76;99707.00;6119874;23;20105;-85
2023/12/26 06:21:56;;;;;;;12.00;2.60;;;;;;;9.73;80.39;99727.50;6096966;23;20472;-85
2023/12/26 06:24:24;;;;;;;8.40;2.30;;;;;;;9.77;80.64;99725.44;6096200;23;20025;-84
2023/12/26 06:26:52;;;;;;;7.38;2.05;;;;;;;9.70;79.82;99719.00;6120665;23;20104;-85
2023/12/26 06:29:19;;;;;;;11.20;2.38;;;;;;;9.72;80.33;99728.50;6120434;23;20357;-85
2023/12/26 06:31:46;;;;;;;5.72;1.80;;;;;;;9.75;80.38;99738.00;6095876;23;20017;-84
2023/12/26 06:34:12;;;;;;;13.70;2.80;;;;;;;9.73;80.28;99738.13;6096681;23;20026;-84
2023/12/26 06:36:40;;;;;;;6.50;1.95;;;;;;;9.74;80.38;99723.91;6144319;23;20641;-84
2023/12/26 06:39:07;;;;;;;7.13;2.20;;;;;;;9.75;80.36;99722.91;6095877;23;20089;-85
2023/12/26 06:41:34;;;;;;;8.65;2.53;;;;;;;9.74;80.17;99734.50;6095572;23;20025;-85
2023/12/26 06:44:01;;;;;;;11.38;2.20;;;;;;;9.71;79.95;99724.16;6095799;23;20049;-84
2023/12/26 06:46:28;;;;;;;8.02;2.40;;;;;;;9.75;80.04;99736.19;6096250;23;20029;-84
2023/12/26 06:48:55;;;;;;;8.10;2.33;;;;;;;9.75;80.17;99738.00;6096099;23;20057;-84
2023/12/26 06:51:22;;;;;;;9.25;2.03;;;;;;;9.79;80.28;99744.69;6119378;23;20029;-85
2023/12/26 06:53:49;;;;;;;8.27;2.30;;;;;;;9.79;80.12;99750.00;6145128;23;20052;-85
2023/12/26 06:56:16;;;;;;;5.50;2.05;;;;;;;9.79;80.01;99750.00;6120254;23;20028;-85
2023/12/26 06:58:44;;;;;;;15.77;4.13;;;;;;;9.81;79.93;99763.13;6144560;23;20371;-84
2023/12/26 07:01:13;;;;;;;10.93;2.88;;;;;;;9.80;80.18;99769.44;6095847;23;20030;-85
2023/12/26 07:03:40;;;;;;;6.93;2.20;;;;;;;9.74;79.79;99769.00;6120299;23;20458;-85
2023/12/26 07:06:07;;;;;;;4.20;2.10;;;;;;;9.75;79.69;99775.13;6120910;23;20080;-85
2023/12/26 07:08:34;;;;;;;11.02;2.75;;;;;;;9.75;79.84;99775.13;6096325;23;20056;-86
2023/12/26 07:11:01;;;;;;;12.77;2.65;;;;;;;9.74;79.73;99786.69;6119704;23;20024;-85
2023/12/26 07:13:28;;;;;;;10.52;2.83;;;;;;;9.70;79.65;99782.63;6095762;23;20017;-84
2023/12/26 07:15:55;;;;;;;14.05;2.65;;;;;;;9.73;79.83;99795.63;6096538;23;20025;-85
2023/12/26 07:18:22;;;;;;;8.13;2.05;;;;;;;9.73;80.03;99795.63;6095772;23;20108;-85
2023/12/26 07:20:49;;;;;;;13.00;2.95;;;;;;;9.74;79.88;99800.81;6142430;23;20076;-85
2023/12/26 07:23:16;;;;;;;8.73;2.42;;;;;;;9.74;79.84;99800.81;6120879;23;20017;-85
2023/12/26 07:25:43;;;;;;;9.23;2.33;;;;;;;9.66;79.68;99797.94;6120721;23;20048;-85
2023/12/26 07:28:16;;;;;;;12.25;2.88;;;;;;;9.73;79.75;99808.88;6095854;23;20029;-85
2023/12/26 07:30:44;;;;;;;7.55;2.03;;;;;;;9.73;79.85;99807.06;6144791;23;20018;-85
2023/12/26 07:33:11;;;;;;;8.88;2.42;;;;;;;9.69;79.41;99812.75;6120267;23;20030;-86
2023/12/26 07:35:38;;;;;;;10.05;2.60;;;;;;;9.72;79.36;99809.88;6144802;23;20017;-85
2023/12/26 07:38:05;;;;;;;8.27;2.63;;;;;;;9.75;79.99;99820.19;6095104;23;20018;-85
2023/12/26 07:40:32;;;;;;;6.60;2.45;;;;;;;9.77;79.97;99831.53;6142693;23;20492;-85
2023/12/26 07:43:00;;;;;;;10.70;2.88;;;;;;;9.71;79.46;99840.81;6120490;23;20014;-85
2023/12/26 07:45:26;;;;;;;11.00;2.33;;;;;;;9.73;79.68;99841.53;6071824;23;20110;-85
2023/12/26 07:47:54;;;;;;;15.70;2.60;;;;;;;9.68;79.38;99827.81;6094809;23;20092;-85
2023/12/26 07:50:22;;;;;;;8.52;2.55;;;;;;;9.69;79.47;99845.44;6118318;23;20119;-85
2023/12/26 07:52:49;;;;;;;11.20;2.75;;;;;;;9.73;79.71;99840.69;6144384;23;20689;-85
2023/12/26 07:55:16;;;;;;;9.55;2.50;;;;;;;9.75;79.49;99849.38;6095416;23;20513;-85
2023/12/26 07:57:44;;;;;;;9.30;3.00;;;;;;;9.74;79.44;99856.50;6095271;23;20434;-85
2023/12/26 08:00:12;;;;;;;9.23;2.50;;;;;;;9.77;79.64;99855.38;6118979;23;20029;-85
2023/12/26 08:02:39;;;;;;;11.32;2.33;;;;;;;9.79;80.04;99856.06;6119492;23;20022;-85
2023/12/26 08:05:06;;;;;;;12.32;2.90;;;;;;;9.81;80.24;99859.44;6118285;23;20057;-84
2023/12/26 08:07:33;;;;;;;7.40;2.45;;;;;;;9.82;80.13;99870.88;6142995;23;20025;-85
2023/12/26 08:10:00;;;;;;;14.25;2.80;;;;;;;9.80;78.98;99871.03;6118876;23;20438;-85
2023/12/26 08:12:27;;;;;;;15.90;5.35;;;;;;;9.81;79.71;99882.47;6119234;23;20072;-85
2023/12/26 08:14:54;;;;;;;9.95;3.75;;;;;;;9.80;79.73;99884.28;6119263;23;20020;-85
2023/12/26 08:17:21;;;;;;;12.38;3.15;;;;;;;9.80;79.66;99889.59;6119678;23;20029;-85
2023/12/26 08:19:49;;;;;;;15.45;3.00;;;;;;;9.81;79.98;99896.56;6094299;23;20029;-85
2023/12/26 08:22:16;;;;;;;9.25;2.90;;;;;;;9.81;79.74;99890.44;6095532;23;20025;-86
2023/12/26 08:24:43;;;;;;;10.38;2.53;;;;;;;9.81;80.09;99888.63;6074527;23;20037;-91
2023/12/26 08:27:10;;;;;;;12.52;3.90;;;;;;;9.81;79.73;99901.03;6115035;23;20477;-90
2023/12/26 08:29:37;;;;;;;13.88;2.78;;;;;;;9.83;80.14;99910.56;6094512;23;20018;-91
2023/12/26 08:32:04;;;;;;;19.30;3.40;;;;;;;9.81;79.95;99911.66;6070681;23;20026;-89
2023/12/26 08:34:31;;;;;;;7.88;2.50;;;;;;;9.78;79.87;99924.19;6117287;23;20403;-90
2023/12/26 08:36:58;;;;;;;11.25;3.10;;;;;;;9.73;79.00;99910.47;6091207;23;20025;-90
2023/12/26 08:39:25;;;;;;;16.10;3.03;;;;;;;9.77;79.72;99903.13;6089942;23;20918;-90
2023/12/26 08:41:51;;;;;;;10.93;2.33;;;;;;;9.76;79.81;99894.31;6067406;23;20051;-87
2023/12/26 08:44:18;;;;;;;12.73;3.35;;;;;;;9.72;79.54;99919.41;6086817;23;20330;-88
2023/12/26 08:46:45;;;;;;;9.70;2.42;;;;;;;9.74;79.77;99922.78;6116413;23;20049;-87
2023/12/26 08:49:12;;;;;;;14.35;4.22;;;;;;;9.75;79.83;99918.31;6117742;23;20053;-88
2023/12/26 08:51:39;;;;;;;6.90;2.78;;;;;;;9.77;79.78;99929.66;6115473;23;20032;-87
2023/12/26 08:54:06;;;;;;;7.43;2.60;;;;;;;9.79;79.70;99917.06;6092325;23;20029;-88
2023/12/26 08:56:38;;;;;;;14.63;2.83;;;;;;;9.76;79.74;99907.56;6090674;23;20081;-88
2023/12/26 08:59:05;;;;;;;9.52;2.50;;;;;;;9.77;79.76;99913.72;6118256;23;20094;-89
2023/12/26 09:01:32;;;;;;;6.07;2.83;;;;;;;9.77;79.90;99916.38;6119772;23;20032;-91
2023/12/26 09:03:58;;;;;;;11.75;2.65;;;;;;;9.74;79.86;99944.00;6121354;23;20069;-89
2023/12/26 09:06:26;;;;;;;8.40;2.50;;;;;;;9.73;80.04;99941.47;6121248;23;20350;-89
2023/12/26 09:08:53;;;;;;;6.55;2.40;;;;;;;9.75;79.82;99947.47;6119516;23;20032;-88
2023/12/26 09:11:20;;;;;;;6.53;2.13;;;;;;;9.80;80.22;99963.03;6121190;23;20025;-89
2023/12/26 09:13:46;;;;;;;12.00;2.97;;;;;;;9.75;80.05;99964.22;6145038;23;20089;-90
2023/12/26 09:16:13;;;;;;;13.43;3.08;;;;;;;9.79;80.42;99975.41;6119641;23;20076;-88
2023/12/26 09:18:41;;;;;;;14.68;3.08;;;;;;;9.76;80.41;99973.03;6142968;23;20031;-87
2023/12/26 09:21:09;;;;;;;15.43;2.97;;;;;;;9.74;80.18;99972.31;6145560;23;20080;-89
2023/12/26 09:23:36;;;;;;;9.38;2.67;;;;;;;9.76;80.41;99979.16;6072926;23;20021;-88
2023/12/26 09:26:04;;;;;;;13.50;3.28;;;;;;;9.77;80.53;99980.03;6096984;23;21060;-88
2023/12/26 09:28:31;;;;;;;12.43;3.50;;;;;;;9.77;80.82;99972.06;6095743;23;20017;-88
2023/12/26 09:30:59;;;;;;;22.33;4.03;;;;;;;9.82;80.64;99979.63;6119870;23;20029;-88
2023/12/26 09:33:26;;;;;;;21.55;4.20;;;;;;;9.82;80.82;100003.50;6119044;23;20437;-88
2023/12/26 09:35:53;;;;;;;14.63;4.10;;;;;;;9.80;80.90;100014.25;6096760;23;20032;-89
2023/12/26 09:38:20;;;;;;;11.05;3.60;;;;;;;9.80;80.97;100010.75;6119679;23;20018;-89
2023/12/26 09:40:47;;;;;;;13.63;3.35;;;;;;;9.79;81.11;100012.53;6094207;23;20049;-85
2023/12/26 09:43:14;;;;;;;14.80;3.22;;;;;;;9.78;81.08;100022.31;6121288;23;20029;-91
2023/12/26 09:45:41;;;;;;;12.32;3.60;;;;;;;9.81;81.31;100031.00;6123772;23;20074;-90
2023/12/26 09:48:09;;;;;;;10.50;3.47;;;;;;;9.82;81.42;100030.00;6098111;23;20095;-87
2023/12/26 09:50:36;;;;;;;16.85;3.85;;;;;;;9.81;81.46;100020.38;6096599;23;20391;-88
2023/12/26 09:53:07;;;;;;;13.35;3.28;;;;;;;9.63;82.97;100031.53;6145875;23;20096;-87
2023/12/26 09:55:34;;;;;;;19.17;3.67;;;;;;;9.76;82.54;100028.72;6102166;23;20040;-88
2023/12/26 09:58:01;;;;;;;14.48;2.80;;;;;;;9.78;82.85;100034.75;6091612;23;20025;-89
2023/12/26 10:00:29;;;;;;;8.43;3.00;;;;;;;9.77;82.88;100027.75;6117495;23;20026;-88
2023/12/26 10:02:56;;;;;;;11.13;3.38;;;;;;;9.73;83.58;100026.31;6072269;23;20061;-85
2023/12/26 10:05:25;;;;;;;8.98;2.80;;;;;;;9.67;83.94;100013.56;6071497;23;20025;-85
2023/12/26 10:07:53;;;;;;;12.95;3.00;;;;;;;9.72;83.69;100014.88;6106466;23;20097;-89
2023/12/26 10:10:20;;;;;;;16.98;3.40;;;;;;;9.77;83.77;100023.28;6092937;23;20080;-89
2023/12/26 10:12:48;;;;;;;11.00;2.65;;;;;;;9.79;83.72;100036.41;6073941;23;20101;-88
2023/12/26 10:15:15;;;;;;;21.00;4.88;;;;;;;9.79;83.96;100036.41;6092547;23;20021;-89
2023/12/26 10:17:43;;;;;;;17.55;3.13;;;;;;;9.81;84.08;100041.59;6114624;23;20006;-87
2023/12/26 10:20:19;;;;;;;8.68;3.00;;;;;;;9.78;84.23;100050.66;6069683;23;20105;-87
2023/12/26 10:22:46;;;;;;;8.80;3.45;;;;;;;9.82;84.14;100044.13;6090170;23;20346;-87
2023/12/26 10:25:13;;;;;;;9.55;3.53;;;;;;;9.81;84.07;100044.25;6102889;23;20025;-86
2023/12/26 10:27:41;;;;;;;12.60;3.00;;;;;;;9.78;84.32;100035.56;6137802;23;21956;-84
2023/12/26 10:30:08;;;;;;;14.95;2.83;;;;;;;9.75;84.75;100035.00;6070431;23;20096;-88
2023/12/26 10:32:37;;;;;;;16.75;2.97;;;;;;;9.67;85.56;100034.78;6095066;23;20037;-87
2023/12/26 10:35:14;;;;;;;13.50;4.35;;;;;;;9.73;84.99;100047.53;6119904;23;20021;-88
2023/12/26 10:37:41;;;;;;;11.52;4.55;;;;;;;9.79;85.13;100049.66;6119522;23;20089;-89
2023/12/26 10:40:10;;;;;;;20.00;3.35;;;;;;;9.82;84.98;100045.91;6116681;23;20030;-89
2023/12/26 10:42:39;;;;;;;11.65;3.10;;;;;;;9.82;85.22;100038.84;6107357;23;20021;-88
2023/12/26 10:45:29;;;;;;;11.95;3.35;;;;;;;9.77;85.68;100043.66;6115953;23;20444;-87
2023/12/26 10:47:57;;;;;;;21.83;3.90;;;;;;;9.71;85.82;100047.66;6090237;23;20122;-90
2023/12/26 10:50:25;;;;;;;9.27;3.30;;;;;;;9.77;85.41;100047.16;6084005;23;20022;-88
2023/12/26 10:53:08;;;;;;;15.70;3.97;;;;;;;9.77;85.83;100056.94;6098457;23;20410;-88
2023/12/26 10:55:38;;;;;;;15.10;3.00;;;;;;;9.76;86.18;100052.56;6090598;23;20053;-88
2023/12/26 10:58:29;;;;;;;13.85;3.42;;;;;;;9.73;86.28;100052.84;6070578;23;20036;-88
2023/12/26 13:52:18;;;;;;;7.28;3.10;;;;;;;9.70;91.98;100112.25;6118163;23;20265;-87
2023/12/26 13:55:23;;;;;;;8.15;3.33;;;;;;;9.77;91.32;100118.75;6166857;23;20045;-85
2023/12/26 13:58:28;;;;;;;7.40;3.17;;;;;;;9.72;92.01;100109.50;6075100;23;20022;-87
2023/12/26 14:01:33;;;;;;;7.85;3.20;;;;;;;9.81;91.24;100121.16;6115105;23;20026;-83
2023/12/26 14:04:40;;;;;;;6.70;3.40;;;;;;;9.80;91.48;100122.97;6121418;23;20461;-83
2023/12/26 14:07:46;;;;;;;6.63;3.60;;;;;;;9.79;91.46;100134.53;6120591;23;20104;-84
2023/12/26 14:10:50;;;;;;;8.32;3.28;;;;;;;9.84;90.94;100136.81;6118387;23;20053;-83
2023/12/26 14:13:54;;;;;;;11.63;2.85;;;;;;;9.80;91.50;100140.72;6144445;23;20072;-83
2023/12/26 14:16:59;;;;;;;6.55;3.60;;;;;;;9.77;91.81;100137.34;6116351;23;20025;-83
2023/12/26 14:19:26;;;;;;;9.25;3.65;;;;;;;9.85;91.12;100138.53;6115923;23;20026;-84
2023/12/26 14:21:53;;;;;;;6.18;3.58;;;;;;;9.87;91.12;100150.69;6115046;23;20101;-84
2023/12/26 14:24:20;;;;;;;7.47;3.88;;;;;;;9.89;91.44;100137.28;6091752;23;20354;-84
2023/12/26 14:26:47;;;;;;;10.85;3.58;;;;;;;9.91;91.40;100151.28;6114496;23;20038;-84
2023/12/26 14:29:14;;;;;;;9.23;4.57;;;;;;;9.91;91.68;100162.72;6090282;23;20469;-84
2023/12/26 14:31:41;;;;;;;8.60;4.63;;;;;;;9.91;91.79;100168.03;6114564;23;20037;-83
2023/12/26 14:34:08;;;;;;;10.95;4.32;;;;;;;9.92;91.64;100166.22;6114769;23;20029;-83